TJMZTNCM

Guest
Details From TJMZ - Mayaguez/Eugenio Maria De Hostos
To TNCM - St Maarten - Princess Juliana Intl
Flight Number -
Tags generated
Created
Modified
Stats Distance 233 nm / 432 km
Max Altitude 31,000 ft / 9,449 m
Waypoints 6
Social Downloads 17
Likes 0
Share VATSIM

Download

Looking for another format? Having issues loading an existing format? Contact us
Advertisement - Login to hide

Notes

Basic altitude profile: - Ascent Rate: 2500ft/min - Ascent Speed: 250kts - Cruise Altitude: 35000ft - Cruise Speed: 420kts - Descent Rate: 1500ft/min - Descent Speed: 250kts Options: - Use NATs: yes - Use PACOTS: yes - Use low airways: yes - Use high airways: yes

Route

TJMZ CHAKA RTE6 STT B520 PASIC TNCM

ID Type Via Altitude Latitude Longitude Leg Dist Tot Dist Heading (true) Name
O TJMZ APT - 0 ft / 0 m 18.25564˚ -67.14845˚ - 0 nm - Mayaguez/Eugenio Maria De Hostos
CHAKA FIX - 31,000 ft / 9,449 m 18.37288˚ -65.62953˚ 86 nm 86 nm 85° / 86° -
PALCO FIX RTE6 (AWY-LO) 17,000 ft / 5,182 m 18.29171˚ -65.23562˚ 22 nm 109 nm 102° / 102° -
STT DME RTE6 (AWY-LO) 17,000 ft / 5,182 m 18.35582˚ -65.02456˚ 12 nm 122 nm 72° / 72° ST THOMAS VOR-DME
PASIC FIX B520 (AWY-HI) 19,100 ft / 5,822 m 18.29481˚ -64.65002˚ 21 nm 144 nm 100° / 100° -
O TNCM APT - 0 ft / 0 m 18.04089˚ -63.10897˚ 89 nm 233 nm 100° / 100° St Maarten - Princess Juliana Intl

Altitude Profile

Advertisement - Login to hide

Weather


0- 5 10 15 20 25 30 35+ Temperature / ° C

Clouds and Precipitation
Forecast for 2018-05-23 12:00 UTC. Updated 6 hours ago

Ground ~20,000 ft ~40,000 ft Winds

TJMZ

Details ICAO TJMZ (MAZ)
Name Mayaguez/Eugenio Maria De Hostos
Region USA (Puerto Rico)
Timezone America/Puerto_Rico (UTC-4.0)
Stats Elevation 28 ft / 9 m (AMSL)
Location 18.255644° -67.148451°
Runways 1
Magnetic Variation 12.737° W

METAR

Not found

TAF

TAF AMD TJMZ 231620Z 2316/2412 27015KT P6SM SCT025 FM231800 27015KT P6SM VCTS SCT025CB BKN040 TEMPO 2319/2321 VRB15KT 3SM TSRA BKN025CB FM232300 09005KT P6SM SCT030 AMD NOT SKED

Decode

Departure Runways

ID Width Length Bearing (true) Bearing (mag) Surface Threshold Offset Overrun Length
09 98 ft / 30 m 4,995 ft / 1,522 m 76.40° 89.14° Asphalt 0 ft / 0 m 0 ft / 0 m
27 98 ft / 30 m 4,995 ft / 1,522 m 256.41° 269.15° Asphalt 0 ft / 0 m 0 ft / 0 m

TNCM

Details ICAO TNCM (SXM)
Name St Maarten - Princess Juliana Intl
Region Caribbean Netherlands, Aruba, Curaçao, Sint Maarten
Timezone Unknown (UTC+0.0)
Stats Elevation 12 ft / 4 m (AMSL)
Location 18.040889° -63.108974°
Runways 1
Magnetic Variation 14.337° W

METAR

TNCM 231700Z 10011KT 060V140 9999 SCT018 29/21 Q1019 A3009 NOSIG

Decode

TAF

TAF TAF TNCM 231130Z 2312/2412 09012KT P6SM SCT020

Decode

Destination Runways

ID Width Length Bearing (true) Bearing (mag) Surface Threshold Offset Overrun Length
10 148 ft / 45 m 7,464 ft / 2,275 m 81.43° 95.77° Asphalt 0 ft / 0 m 151 ft / 46 m
28 148 ft / 45 m 7,464 ft / 2,275 m 261.44° 275.78° Asphalt 397 ft / 121 m 0 ft / 0 m

Popular Alternatives